createdAt,value
2018-04-18T00:02:11.654Z,9.97
2018-04-18T00:04:39.771Z,9.93
2018-04-18T00:07:07.960Z,9.91
2018-04-18T00:09:36.078Z,9.90
2018-04-18T00:12:04.199Z,9.86
2018-04-18T00:14:32.338Z,9.82
2018-04-18T00:17:00.467Z,9.79
2018-04-18T00:19:28.607Z,9.75
2018-04-18T00:21:56.731Z,9.73
2018-04-18T00:24:24.870Z,9.72
2018-04-18T00:26:52.996Z,9.69
2018-04-18T00:29:21.118Z,9.66
2018-04-18T00:31:49.278Z,9.65
2018-04-18T00:34:17.422Z,9.65
2018-04-18T00:36:45.557Z,9.66
2018-04-18T00:39:13.699Z,9.66
2018-04-18T00:41:41.837Z,9.66
2018-04-18T00:44:09.965Z,9.62
2018-04-18T00:46:38.102Z,9.60
2018-04-18T00:49:06.306Z,9.56
2018-04-18T00:51:34.431Z,9.54
2018-04-18T00:54:02.551Z,9.50
2018-04-18T00:56:30.683Z,9.47
2018-04-18T00:58:58.818Z,9.45
2018-04-18T01:01:26.954Z,9.41
2018-04-18T01:03:55.081Z,9.37
2018-04-18T01:06:23.230Z,9.29
2018-04-18T01:08:51.364Z,9.22
2018-04-18T01:11:19.491Z,9.17
2018-04-18T01:13:47.614Z,9.13
2018-04-18T01:16:15.754Z,9.09
2018-04-18T01:18:43.890Z,8.92
2018-04-18T01:21:12.013Z,8.87
2018-04-18T01:23:40.152Z,8.83
2018-04-18T01:26:08.285Z,8.78
2018-04-18T01:28:36.409Z,8.75
2018-04-18T01:31:04.569Z,8.74
2018-04-18T01:33:32.706Z,8.71
2018-04-18T01:36:00.830Z,8.67
2018-04-18T01:38:28.962Z,8.65
2018-04-18T01:40:57.096Z,8.62
2018-04-18T01:43:25.234Z,8.53
2018-04-18T01:45:53.379Z,8.44
2018-04-18T01:48:21.531Z,8.44
2018-04-18T01:50:49.717Z,8.39
2018-04-18T01:53:17.805Z,8.37
2018-04-18T01:55:45.936Z,8.30
2018-04-18T01:58:14.066Z,8.26
2018-04-18T02:00:42.200Z,8.25
2018-04-18T02:03:10.679Z,8.21
2018-04-18T02:05:38.962Z,8.20
2018-04-18T02:08:07.132Z,8.19
2018-04-18T02:10:35.274Z,8.17
2018-04-18T02:13:04.266Z,8.16
2018-04-18T02:15:32.407Z,8.16
2018-04-18T02:18:00.531Z,8.15
2018-04-18T02:20:28.658Z,8.13
2018-04-18T02:22:56.799Z,8.13
2018-04-18T02:25:24.958Z,8.13
2018-04-18T02:27:53.089Z,8.07
2018-04-18T02:30:21.286Z,8.09
2018-04-18T02:32:49.421Z,8.08
2018-04-18T02:35:17.544Z,8.04
2018-04-18T02:37:45.678Z,7.98
2018-04-18T02:40:13.813Z,7.76
2018-04-18T02:42:42.034Z,7.70
2018-04-18T02:45:10.669Z,7.67
2018-04-18T02:47:38.895Z,7.63
2018-04-18T02:50:07.038Z,7.61
2018-04-18T02:52:35.172Z,7.63
2018-04-18T02:55:03.301Z,7.58
2018-04-18T02:57:31.439Z,7.54
2018-04-18T02:59:59.573Z,7.57
2018-04-18T03:02:27.703Z,7.57
2018-04-18T03:04:55.829Z,7.56
2018-04-18T03:07:23.969Z,7.56
2018-04-18T03:09:52.117Z,7.54
2018-04-18T03:12:20.263Z,7.53
2018-04-18T03:14:48.398Z,7.48
2018-04-18T03:17:16.522Z,7.49
2018-04-18T03:19:44.650Z,7.47
2018-04-18T03:22:12.790Z,7.45
2018-04-18T03:24:40.939Z,7.43
2018-04-18T03:27:09.125Z,7.44
2018-04-18T03:29:37.276Z,7.42
2018-04-18T03:32:05.408Z,7.42
2018-04-18T03:34:33.523Z,7.41
2018-04-18T03:37:01.670Z,7.32
2018-04-18T03:39:29.805Z,7.27
2018-04-18T03:41:57.952Z,7.22
2018-04-18T03:44:26.107Z,7.19
2018-04-18T03:46:54.234Z,7.17
2018-04-18T03:49:22.364Z,7.14
2018-04-18T03:51:50.510Z,7.07
2018-04-18T03:54:18.630Z,7.02
2018-04-18T03:56:46.756Z,7.00
2018-04-18T03:59:14.916Z,7.00
2018-04-18T04:01:43.039Z,6.98
2018-04-18T04:04:11.177Z,6.96
2018-04-18T04:06:39.296Z,6.96
2018-04-18T04:09:07.522Z,6.97
2018-04-18T04:11:35.645Z,6.97
2018-04-18T04:14:03.786Z,7.01
2018-04-18T04:16:43.651Z,7.02
2018-04-18T04:19:23.486Z,6.99
2018-04-18T04:22:03.514Z,7.00
2018-04-18T04:24:39.189Z,7.04
2018-04-18T04:27:07.342Z,7.06
2018-04-18T04:29:35.736Z,7.09
2018-04-18T04:32:03.867Z,7.12
2018-04-18T04:34:32.000Z,7.14
2018-04-18T04:37:00.152Z,7.17
2018-04-18T04:39:28.278Z,7.20
2018-04-18T04:41:56.442Z,7.26
2018-04-18T04:44:24.580Z,7.32
2018-04-18T04:46:52.703Z,7.36
2018-04-18T04:49:20.829Z,7.40
2018-04-18T04:51:48.949Z,7.49
2018-04-18T04:54:17.090Z,7.59
2018-04-18T04:56:45.210Z,7.64
2018-04-18T04:59:13.341Z,7.69
2018-04-18T05:01:41.946Z,7.78
2018-04-18T05:04:10.076Z,7.88
2018-04-18T05:06:38.219Z,8.00
2018-04-18T05:09:06.419Z,8.12
2018-04-18T05:11:34.553Z,8.25
2018-04-18T05:14:02.710Z,8.37
2018-04-18T05:16:30.846Z,8.47
2018-04-18T05:18:58.994Z,8.56
2018-04-18T05:21:27.110Z,8.66
2018-04-18T05:23:55.251Z,8.76
2018-04-18T05:26:23.373Z,8.80
2018-04-18T05:28:51.505Z,8.89
2018-04-18T05:31:19.640Z,8.95
2018-04-18T05:33:47.769Z,9.02
2018-04-18T05:36:15.904Z,9.14
2018-04-18T05:38:44.064Z,9.25
2018-04-18T05:41:12.332Z,9.40
2018-04-18T05:43:40.462Z,9.56
2018-04-18T05:46:08.597Z,9.72
2018-04-18T05:48:36.801Z,9.92
2018-04-18T05:51:04.993Z,10.09
2018-04-18T05:53:33.111Z,10.15
2018-04-18T05:56:01.258Z,10.24
2018-04-18T05:58:29.398Z,10.28
2018-04-18T06:00:57.542Z,10.38
2018-04-18T06:03:25.681Z,10.50
2018-04-18T06:05:53.836Z,10.50
2018-04-18T06:08:21.986Z,10.52
2018-04-18T06:10:50.115Z,10.56
2018-04-18T06:13:18.249Z,10.72
2018-04-18T06:15:46.389Z,10.83
2018-04-18T06:18:14.518Z,10.82
2018-04-18T06:20:42.660Z,10.88
2018-04-18T06:23:10.808Z,10.88
2018-04-18T06:25:38.945Z,10.86
2018-04-18T06:28:07.083Z,11.01
2018-04-18T06:30:35.236Z,11.18
2018-04-18T06:33:03.356Z,11.30
2018-04-18T06:35:31.497Z,11.42
2018-04-18T06:38:04.674Z,11.55
2018-04-18T06:40:32.998Z,11.54
2018-04-18T06:43:01.136Z,11.55
2018-04-18T06:45:29.267Z,11.63
2018-04-18T06:47:57.405Z,11.85
2018-04-18T06:50:25.554Z,11.85
2018-04-18T06:52:53.709Z,11.90
2018-04-18T06:55:21.869Z,12.12
2018-04-18T06:57:50.001Z,12.35
2018-04-18T07:00:18.150Z,12.52
2018-04-18T07:02:46.272Z,12.60
2018-04-18T07:05:14.409Z,12.74
2018-04-18T07:07:42.555Z,12.76
2018-04-18T07:10:10.684Z,12.87
2018-04-18T07:12:38.808Z,12.98
2018-04-18T07:15:07.077Z,13.07
2018-04-18T07:17:35.212Z,13.14
2018-04-18T07:20:03.360Z,13.26
2018-04-18T07:22:31.495Z,13.44
2018-04-18T07:24:59.631Z,13.58
2018-04-18T07:27:27.755Z,13.67
2018-04-18T07:29:55.896Z,13.85
2018-04-18T07:32:24.045Z,13.99
2018-04-18T07:34:52.194Z,14.08
2018-04-18T07:37:20.474Z,14.17
2018-04-18T07:39:48.633Z,14.47
2018-04-18T07:42:16.763Z,14.62
2018-04-18T07:44:44.899Z,14.66
2018-04-18T07:47:13.044Z,14.82
2018-04-18T07:49:41.178Z,14.85
2018-04-18T07:52:09.313Z,15.01
2018-04-18T07:54:37.458Z,15.13
2018-04-18T07:57:05.674Z,15.42
2018-04-18T07:59:33.812Z,15.55
2018-04-18T08:02:01.960Z,15.61
2018-04-18T08:04:30.101Z,15.82
2018-04-18T08:06:58.232Z,15.56
2018-04-18T08:09:26.423Z,15.60
2018-04-18T08:11:54.565Z,15.78
2018-04-18T08:14:22.726Z,15.89
2018-04-18T08:16:50.897Z,16.00
2018-04-18T08:19:19.028Z,16.24
2018-04-18T08:21:47.228Z,16.30
2018-04-18T08:24:15.327Z,16.64
2018-04-18T08:26:43.456Z,16.92
2018-04-18T08:29:11.609Z,17.03
2018-04-18T08:31:39.757Z,17.17
2018-04-18T08:34:07.910Z,17.48
2018-04-18T08:36:36.108Z,17.81
2018-04-18T08:39:04.225Z,17.97
2018-04-18T08:41:32.398Z,18.16
2018-04-18T08:44:00.552Z,18.41
2018-04-18T08:46:28.739Z,18.50
2018-04-18T08:48:56.870Z,18.39
2018-04-18T08:51:25.006Z,18.38
2018-04-18T08:53:53.151Z,18.59
2018-04-18T08:56:21.311Z,18.76
2018-04-18T08:58:49.442Z,18.90
2018-04-18T09:01:18.670Z,18.94
2018-04-18T09:03:46.824Z,19.17
2018-04-18T09:06:14.966Z,19.27
2018-04-18T09:08:43.101Z,19.08
2018-04-18T09:11:11.237Z,19.35
2018-04-18T09:13:39.373Z,19.11
2018-04-18T09:16:07.515Z,19.18
2018-04-18T09:18:35.637Z,19.46
2018-04-18T09:21:03.794Z,19.66
2018-04-18T09:26:55.246Z,19.47
2018-04-18T09:29:23.390Z,19.56
2018-04-18T09:31:51.518Z,19.83
2018-04-18T09:34:19.650Z,20.00
2018-04-18T09:36:47.803Z,20.06
2018-04-18T09:39:15.951Z,20.41
2018-04-18T09:41:44.088Z,20.46
2018-04-18T09:44:12.205Z,20.20
2018-04-18T09:46:40.367Z,20.32
2018-04-18T09:49:08.500Z,20.62
2018-04-18T09:51:36.635Z,20.92
2018-04-18T09:54:04.783Z,21.00
2018-04-18T09:56:32.911Z,21.23
2018-04-18T09:59:01.111Z,21.30
2018-04-18T10:01:34.948Z,21.34
2018-04-18T10:04:08.647Z,21.33
2018-04-18T10:06:36.871Z,21.58
2018-04-18T10:09:06.426Z,21.58
2018-04-18T10:11:34.570Z,21.07
2018-04-18T10:14:03.102Z,21.01
2018-04-18T10:16:31.263Z,21.04
2018-04-18T10:18:59.382Z,21.06
2018-04-18T10:21:27.585Z,21.30
2018-04-18T10:23:55.761Z,21.30
2018-04-18T10:26:23.913Z,20.98
2018-04-18T10:28:52.053Z,20.60
2018-04-18T10:31:20.185Z,20.69
2018-04-18T10:33:48.327Z,21.09
2018-04-18T10:36:16.468Z,21.51
2018-04-18T10:38:44.605Z,21.74
2018-04-18T10:41:12.742Z,21.87
2018-04-18T10:43:40.989Z,21.37
2018-04-18T10:46:10.680Z,21.60
2018-04-18T10:48:38.807Z,20.96
2018-04-18T10:51:07.033Z,20.75
2018-04-18T10:53:35.169Z,21.01
2018-04-18T10:56:03.328Z,21.35
2018-04-18T10:58:31.492Z,21.55
2018-04-18T11:00:59.619Z,21.84
2018-04-18T11:03:27.756Z,22.09
2018-04-18T11:05:55.943Z,22.15
2018-04-18T11:08:24.079Z,22.05
2018-04-18T11:10:52.195Z,22.06
2018-04-18T11:13:20.375Z,22.34
2018-04-18T11:15:48.477Z,22.71
2018-04-18T11:18:16.621Z,22.55
2018-04-18T11:20:44.766Z,22.26
2018-04-18T11:23:12.894Z,22.20
2018-04-18T11:25:41.029Z,22.44
2018-04-18T11:28:09.206Z,22.49
2018-04-18T11:30:37.363Z,22.57
2018-04-18T11:33:05.598Z,22.75
2018-04-18T11:35:33.746Z,22.80
2018-04-18T11:38:01.885Z,22.80
2018-04-18T11:40:30.031Z,22.78
2018-04-18T11:42:58.241Z,22.75
2018-04-18T11:45:26.373Z,22.50
2018-04-18T11:47:54.539Z,22.37
2018-04-18T11:50:22.675Z,22.39
2018-04-18T11:52:50.808Z,22.68
2018-04-18T11:55:18.946Z,22.52
2018-04-18T11:57:47.292Z,22.81
2018-04-18T12:00:15.444Z,22.63
2018-04-18T12:02:43.618Z,22.74
2018-04-18T12:05:11.779Z,22.43
2018-04-18T12:07:39.923Z,22.73
2018-04-18T12:10:08.079Z,22.94
2018-04-18T12:12:36.231Z,22.82
2018-04-18T12:15:04.365Z,22.74
2018-04-18T12:17:32.496Z,22.89
2018-04-18T12:20:00.643Z,22.40
2018-04-18T12:22:28.779Z,22.73
2018-04-18T12:24:56.920Z,22.96
2018-04-18T12:27:25.074Z,23.04
2018-04-18T12:29:53.234Z,23.18
2018-04-18T12:32:21.366Z,23.33
2018-04-18T12:34:49.514Z,23.30
2018-04-18T12:37:17.648Z,23.48
2018-04-18T12:39:45.793Z,23.25
2018-04-18T12:42:14.113Z,23.09
2018-04-18T12:44:42.246Z,22.73
2018-04-18T12:47:10.434Z,22.84
2018-04-18T12:49:38.649Z,22.46
2018-04-18T12:52:06.777Z,22.40
2018-04-18T12:54:34.947Z,22.58
2018-04-18T12:57:03.135Z,22.86
2018-04-18T12:59:31.339Z,23.12
2018-04-18T13:01:59.471Z,23.03
2018-04-18T13:04:27.633Z,23.29
2018-04-18T13:06:55.761Z,23.41
2018-04-18T13:09:23.902Z,23.30
2018-04-18T13:11:52.092Z,23.23
2018-04-18T13:14:20.216Z,23.27
2018-04-18T13:16:48.371Z,23.55
2018-04-18T13:19:16.517Z,23.42
2018-04-18T13:21:44.678Z,23.49
2018-04-18T13:24:12.809Z,23.61
2018-04-18T13:26:40.993Z,23.51
2018-04-18T13:29:09.958Z,23.52
2018-04-18T13:31:38.121Z,23.29
2018-04-18T13:34:06.277Z,23.31
2018-04-18T13:36:34.411Z,23.35
2018-04-18T13:39:02.552Z,23.20
2018-04-18T13:41:30.714Z,23.19
2018-04-18T13:43:58.843Z,23.35
2018-04-18T13:46:26.971Z,23.36
2018-04-18T13:48:55.138Z,23.27
2018-04-18T13:51:23.290Z,23.26
2018-04-18T13:53:51.421Z,23.03
2018-04-18T13:56:19.581Z,22.91
2018-04-18T13:58:47.709Z,22.89
2018-04-18T14:01:15.851Z,22.96
2018-04-18T14:03:44.003Z,22.86
2018-04-18T14:06:12.151Z,22.98
2018-04-18T14:08:40.289Z,22.93
2018-04-18T14:11:09.611Z,22.95
2018-04-18T14:13:37.751Z,23.16
2018-04-18T14:16:05.907Z,23.20
2018-04-18T14:18:34.048Z,23.36
2018-04-18T14:21:02.166Z,23.51
2018-04-18T14:23:30.305Z,23.48
2018-04-18T14:25:58.442Z,23.48
2018-04-18T14:28:26.592Z,23.21
2018-04-18T14:30:54.740Z,23.12
2018-04-18T14:33:22.867Z,23.17
2018-04-18T14:35:50.994Z,23.23
2018-04-18T14:38:19.137Z,23.24
2018-04-18T14:40:47.310Z,23.34
2018-04-18T14:43:15.447Z,23.26
2018-04-18T14:45:43.608Z,23.11
2018-04-18T14:48:11.743Z,23.16
2018-04-18T14:50:39.859Z,23.30
2018-04-18T14:53:08.013Z,23.15
2018-04-18T14:55:36.175Z,23.26
2018-04-18T14:58:04.323Z,23.05
2018-04-18T15:00:32.454Z,23.08
2018-04-18T15:03:00.594Z,22.96
2018-04-18T15:05:28.770Z,22.85
2018-04-18T15:07:56.901Z,22.78
2018-04-18T15:10:25.048Z,22.65
2018-04-18T15:12:53.175Z,22.68
2018-04-18T15:15:21.320Z,22.75
2018-04-18T15:17:49.450Z,22.78
2018-04-18T15:20:17.581Z,22.81
2018-04-18T15:22:45.731Z,22.85
2018-04-18T15:25:13.867Z,22.81
2018-04-18T15:27:41.986Z,22.83
2018-04-18T15:30:10.116Z,22.82
2018-04-18T15:32:38.272Z,22.76
2018-04-18T15:35:06.467Z,22.75
2018-04-18T15:37:34.589Z,22.74
2018-04-18T15:40:02.746Z,22.71
2018-04-18T15:42:30.866Z,22.57
2018-04-18T15:44:59.020Z,22.44
2018-04-18T15:47:27.183Z,22.35
2018-04-18T15:49:55.402Z,22.30
2018-04-18T15:52:23.526Z,22.27
2018-04-18T15:54:51.657Z,22.27
2018-04-18T15:57:19.798Z,22.31
2018-04-18T15:59:47.930Z,22.33
2018-04-18T16:02:16.109Z,22.29
2018-04-18T16:04:44.235Z,22.26
2018-04-18T16:07:12.384Z,22.25
2018-04-18T16:09:40.510Z,22.27
2018-04-18T16:12:09.011Z,22.24
2018-04-18T16:14:37.144Z,22.15
2018-04-18T16:17:05.315Z,22.13
2018-04-18T16:19:33.435Z,22.19
2018-04-18T16:22:01.555Z,22.08
2018-04-18T16:24:29.690Z,22.04
2018-04-18T16:26:57.810Z,22.09
2018-04-18T16:29:37.679Z,22.02
2018-04-18T16:32:05.828Z,21.95
2018-04-18T16:34:33.985Z,21.95
2018-04-18T16:37:02.118Z,21.89
2018-04-18T16:39:30.259Z,21.83
2018-04-18T16:41:58.389Z,21.79
2018-04-18T16:44:26.523Z,21.78
2018-04-18T16:46:54.655Z,21.79
2018-04-18T16:49:22.791Z,21.78
2018-04-18T16:51:50.914Z,21.70
2018-04-18T16:54:19.123Z,21.65
2018-04-18T16:56:47.248Z,21.60
2018-04-18T16:59:15.380Z,21.54
2018-04-18T17:01:43.530Z,21.45
2018-04-18T17:04:11.655Z,21.36
2018-04-18T17:06:39.816Z,21.28
2018-04-18T17:09:07.963Z,21.18
2018-04-18T17:11:36.105Z,21.09
2018-04-18T17:14:04.234Z,20.98
2018-04-18T17:16:32.350Z,20.92
2018-04-18T17:19:00.596Z,20.83
2018-04-18T17:21:28.766Z,20.74
2018-04-18T17:23:56.889Z,20.65
2018-04-18T17:26:25.011Z,20.55
2018-04-18T17:28:53.157Z,20.45
2018-04-18T17:31:21.313Z,20.34
2018-04-18T17:33:49.451Z,20.23
2018-04-18T17:36:17.571Z,20.10
2018-04-18T17:38:45.784Z,19.96
2018-04-18T17:41:13.937Z,19.85
2018-04-18T17:43:42.070Z,19.70
2018-04-18T17:46:10.217Z,19.57
2018-04-18T17:48:38.341Z,19.41
2018-04-18T17:51:06.562Z,19.22
2018-04-18T17:53:34.694Z,19.04
2018-04-18T17:56:02.836Z,18.88
2018-04-18T17:58:30.985Z,18.75
2018-04-18T18:03:52.379Z,18.36
2018-04-18T18:06:20.601Z,18.16
2018-04-18T18:08:48.681Z,17.94
2018-04-18T18:11:16.848Z,17.79
2018-04-18T18:13:44.973Z,17.69
2018-04-18T18:16:13.110Z,17.59
2018-04-18T18:18:41.312Z,17.47
2018-04-18T18:21:09.851Z,17.24
2018-04-18T18:23:37.973Z,17.21
2018-04-18T18:26:06.117Z,17.09
2018-04-18T18:28:34.247Z,16.94
2018-04-18T18:31:02.399Z,16.84
2018-04-18T18:33:30.693Z,16.72
2018-04-18T18:35:58.818Z,16.61
2018-04-18T18:38:27.008Z,16.50
2018-04-18T18:40:55.138Z,16.42
2018-04-18T18:43:23.327Z,16.33
2018-04-18T18:45:51.415Z,16.27
2018-04-18T18:48:19.565Z,16.21
2018-04-18T18:50:47.701Z,16.13
2018-04-18T18:53:15.851Z,16.05
2018-04-18T18:55:43.990Z,15.99
2018-04-18T18:58:12.130Z,15.97
2018-04-18T19:00:40.265Z,15.96
2018-04-18T19:03:08.424Z,15.93
2018-04-18T19:05:36.595Z,15.91
2018-04-18T19:08:04.723Z,15.85
2018-04-18T19:10:32.853Z,15.78
2018-04-18T19:13:00.990Z,15.74
2018-04-18T19:15:29.158Z,15.68
2018-04-18T19:17:57.306Z,15.61
2018-04-18T19:20:25.438Z,15.56
2018-04-18T19:22:53.577Z,15.53
2018-04-18T19:25:21.732Z,15.51
2018-04-18T19:27:49.873Z,15.46
2018-04-18T19:30:18.005Z,15.42
2018-04-18T19:32:46.169Z,15.36
2018-04-18T19:35:14.310Z,15.31
2018-04-18T19:37:42.452Z,15.21
2018-04-18T19:40:10.754Z,15.13
2018-04-18T19:42:38.882Z,15.04
2018-04-18T19:45:07.093Z,14.98
2018-04-18T19:47:35.266Z,14.94
2018-04-18T19:50:03.361Z,14.89
2018-04-18T19:52:31.548Z,14.81
2018-04-18T19:54:59.671Z,14.73
2018-04-18T19:57:27.805Z,14.65
2018-04-18T19:59:55.937Z,14.58
2018-04-18T20:02:24.066Z,14.53
2018-04-18T20:04:52.204Z,14.45
2018-04-18T20:07:20.348Z,14.34
2018-04-18T20:09:48.488Z,14.23
2018-04-18T20:12:16.614Z,14.14
2018-04-18T20:14:44.753Z,14.08
2018-04-18T20:17:12.887Z,14.02
2018-04-18T20:19:41.461Z,13.96
2018-04-18T20:22:10.772Z,13.90
2018-04-18T20:24:38.907Z,13.86
2018-04-18T20:27:07.118Z,13.81
2018-04-18T20:29:35.258Z,13.76
2018-04-18T20:32:03.397Z,13.73
2018-04-18T20:34:31.518Z,13.70
2018-04-18T20:36:59.671Z,13.65
2018-04-18T20:39:27.819Z,13.60
2018-04-18T20:41:55.968Z,13.54
2018-04-18T20:44:24.111Z,13.46
2018-04-18T20:46:52.346Z,13.42
2018-04-18T20:49:20.486Z,13.36
2018-04-18T20:51:48.620Z,13.31
2018-04-18T20:54:16.752Z,13.25
2018-04-18T20:56:44.888Z,13.20
2018-04-18T20:59:13.043Z,13.14
2018-04-18T21:01:41.223Z,13.06
2018-04-18T21:04:09.357Z,12.98
2018-04-18T21:06:37.494Z,12.87
2018-04-18T21:09:05.716Z,12.62
2018-04-18T21:11:33.887Z,12.42
2018-04-18T21:14:02.046Z,12.32
2018-04-18T21:16:30.314Z,12.28
2018-04-18T21:18:58.461Z,12.27
2018-04-18T21:21:26.621Z,12.26
2018-04-18T21:23:54.750Z,12.25
2018-04-18T21:26:22.880Z,12.22
2018-04-18T21:28:51.021Z,12.10
2018-04-18T21:31:19.161Z,12.01
2018-04-18T21:33:47.295Z,11.96
2018-04-18T21:36:15.426Z,11.93
2018-04-18T21:38:43.568Z,11.87
2018-04-18T21:41:11.709Z,11.75
2018-04-18T21:43:39.886Z,11.71
2018-04-18T21:46:08.041Z,11.70
2018-04-18T21:48:36.162Z,11.72
2018-04-18T21:51:04.295Z,11.77
2018-04-18T21:53:32.454Z,11.73
2018-04-18T21:56:00.591Z,11.63
2018-04-18T21:58:28.727Z,11.56
2018-04-18T22:00:56.860Z,11.52
2018-04-18T22:03:24.992Z,11.44
2018-04-18T22:05:53.143Z,11.36
2018-04-18T22:08:21.288Z,11.36
2018-04-18T22:10:49.414Z,11.32
2018-04-18T22:13:17.540Z,11.22
2018-04-18T22:15:45.686Z,11.17
2018-04-18T22:18:13.843Z,11.13
2018-04-18T22:24:00.137Z,11.02
2018-04-18T22:26:28.262Z,10.96
2018-04-18T22:28:57.702Z,10.89
2018-04-18T22:31:25.848Z,10.84
2018-04-18T22:33:53.995Z,10.80
2018-04-18T22:36:22.142Z,10.76
2018-04-18T22:38:50.282Z,10.73
2018-04-18T22:41:18.426Z,10.63
2018-04-18T22:43:46.588Z,10.55
2018-04-18T22:46:14.743Z,10.50
2018-04-18T22:48:42.867Z,10.47
2018-04-18T22:51:11.006Z,10.44
2018-04-18T22:53:39.294Z,10.42
2018-04-18T22:56:07.440Z,10.39
2018-04-18T22:58:35.569Z,10.36
2018-04-18T23:01:03.715Z,10.31
2018-04-18T23:03:31.847Z,10.27
2018-04-18T23:06:03.642Z,10.25
2018-04-18T23:08:31.782Z,10.23
2018-04-18T23:10:59.924Z,10.19
2018-04-18T23:13:28.054Z,10.09
2018-04-18T23:15:56.219Z,10.06
2018-04-18T23:18:24.337Z,10.06
2018-04-18T23:20:52.462Z,10.02
2018-04-18T23:23:20.608Z,9.98
2018-04-18T23:25:48.743Z,9.95
2018-04-18T23:28:16.886Z,9.91
2018-04-18T23:30:45.028Z,9.85
2018-04-18T23:33:13.167Z,9.82
2018-04-18T23:35:41.304Z,9.84
2018-04-18T23:38:09.454Z,9.84
2018-04-18T23:40:37.570Z,9.83
2018-04-18T23:43:05.805Z,9.82
2018-04-18T23:45:33.930Z,9.80
2018-04-18T23:48:02.068Z,9.76
2018-04-18T23:50:30.198Z,9.71
2018-04-18T23:52:58.330Z,9.71
2018-04-18T23:55:26.466Z,9.70
2018-04-18T23:57:54.606Z,9.72
